sensor_id;sensor_type;location;lat;lon;timestamp;pressure;altitude;pressure_sealevel;temperature;humidity
68807;BME280;55800;54.272;18.558;2023-03-23T00:01:21;100001.78;;;11.81;66.25
68807;BME280;55800;54.272;18.558;2023-03-23T00:03:52;99999.16;;;11.79;65.93
68807;BME280;55800;54.272;18.558;2023-03-23T00:06:27;100003.69;;;11.79;66.66
68807;BME280;55800;54.272;18.558;2023-03-23T00:09:00;100002.03;;;11.76;66.30
68807;BME280;55800;54.272;18.558;2023-03-23T00:11:31;100003.84;;;11.75;66.11
68807;BME280;55800;54.272;18.558;2023-03-23T00:14:00;99995.91;;;11.74;65.95
68807;BME280;55800;54.272;18.558;2023-03-23T00:16:31;99999.53;;;11.73;66.56
68807;BME280;55800;54.272;18.558;2023-03-23T00:19:00;99994.41;;;11.68;66.19
68807;BME280;55800;54.272;18.558;2023-03-23T00:21:33;99995.22;;;11.70;65.94
68807;BME280;55800;54.272;18.558;2023-03-23T00:24:06;99991.75;;;11.68;65.94
68807;BME280;55800;54.272;18.558;2023-03-23T00:26:37;99988.28;;;11.66;66.05
68807;BME280;55800;54.272;18.558;2023-03-23T00:29:10;99991.91;;;11.65;65.88
68807;BME280;55800;54.272;18.558;2023-03-23T00:31:41;99985.69;;;11.65;65.98
68807;BME280;55800;54.272;18.558;2023-03-23T00:34:14;99995.81;;;11.60;66.61
68807;BME280;55800;54.272;18.558;2023-03-23T00:36:49;99994.69;;;11.64;66.88
68807;BME280;55800;54.272;18.558;2023-03-23T00:39:17;99980.50;;;11.62;66.66
68807;BME280;55800;54.272;18.558;2023-03-23T00:41:48;99982.56;;;11.57;66.51
68807;BME280;55800;54.272;18.558;2023-03-23T00:44:16;99978.16;;;11.56;66.42
68807;BME280;55800;54.272;18.558;2023-03-23T00:46:46;99971.25;;;11.52;66.12
68807;BME280;55800;54.272;18.558;2023-03-23T00:49:18;99972.28;;;11.49;66.46
68807;BME280;55800;54.272;18.558;2023-03-23T00:51:48;99979.38;;;11.50;66.26
68807;BME280;55800;54.272;18.558;2023-03-23T00:54:16;99980.31;;;11.49;66.14
68807;BME280;55800;54.272;18.558;2023-03-23T00:56:44;99983.06;;;11.48;66.45
68807;BME280;55800;54.272;18.558;2023-03-23T00:59:12;99978.59;;;11.48;65.97
68807;BME280;55800;54.272;18.558;2023-03-23T01:01:41;99972.47;;;11.46;65.83
68807;BME280;55800;54.272;18.558;2023-03-23T01:04:09;99965.47;;;11.44;66.47
68807;BME280;55800;54.272;18.558;2023-03-23T01:06:39;99967.34;;;11.42;66.96
68807;BME280;55800;54.272;18.558;2023-03-23T01:09:13;99961.38;;;11.37;66.70
68807;BME280;55800;54.272;18.558;2023-03-23T01:11:43;99964.16;;;11.35;66.30
68807;BME280;55800;54.272;18.558;2023-03-23T01:14:13;99952.66;;;11.33;65.98
68807;BME280;55800;54.272;18.558;2023-03-23T01:16:42;99937.66;;;11.31;65.92
68807;BME280;55800;54.272;18.558;2023-03-23T01:19:10;99925.22;;;11.30;65.90
68807;BME280;55800;54.272;18.558;2023-03-23T01:21:39;99928.84;;;11.29;65.74
68807;BME280;55800;54.272;18.558;2023-03-23T01:24:08;99920.03;;;11.27;65.69
68807;BME280;55800;54.272;18.558;2023-03-23T01:26:37;99919.16;;;11.26;65.58
68807;BME280;55800;54.272;18.558;2023-03-23T01:29:05;99932.81;;;11.22;67.11
68807;BME280;55800;54.272;18.558;2023-03-23T01:31:35;99924.97;;;11.19;66.23
68807;BME280;55800;54.272;18.558;2023-03-23T01:34:05;99924.19;;;11.17;66.71
68807;BME280;55800;54.272;18.558;2023-03-23T01:36:35;99926.84;;;11.17;66.08
68807;BME280;55800;54.272;18.558;2023-03-23T01:39:05;99932.19;;;11.17;65.86
68807;BME280;55800;54.272;18.558;2023-03-23T01:41:35;99931.44;;;11.15;66.10
68807;BME280;55800;54.272;18.558;2023-03-23T01:47:18;99926.22;;;11.12;65.94
68807;BME280;55800;54.272;18.558;2023-03-23T01:49:51;99913.88;;;11.09;65.78
68807;BME280;55800;54.272;18.558;2023-03-23T01:52:23;99911.22;;;11.09;65.56
68807;BME280;55800;54.272;18.558;2023-03-23T01:55:00;99913.97;;;11.08;65.41
68807;BME280;55800;54.272;18.558;2023-03-23T01:57:29;99917.78;;;11.04;65.33
68807;BME280;55800;54.272;18.558;2023-03-23T02:00:03;99913.44;;;11.01;65.33
68807;BME280;55800;54.272;18.558;2023-03-23T02:02:48;99914.66;;;10.95;65.22
68807;BME280;55800;54.272;18.558;2023-03-23T02:05:23;99919.31;;;10.92;65.30
68807;BME280;55800;54.272;18.558;2023-03-23T02:07:53;99916.03;;;10.87;65.40
68807;BME280;55800;54.272;18.558;2023-03-23T02:10:21;99914.38;;;10.84;65.23
68807;BME280;55800;54.272;18.558;2023-03-23T02:12:50;99915.47;;;10.80;65.19
68807;BME280;55800;54.272;18.558;2023-03-23T02:15:20;99910.28;;;10.77;65.32
68807;BME280;55800;54.272;18.558;2023-03-23T02:17:56;99904.25;;;10.74;65.14
68807;BME280;55800;54.272;18.558;2023-03-23T02:21:03;99900.94;;;10.69;64.97
68807;BME280;55800;54.272;18.558;2023-03-23T02:23:58;99889.56;;;10.65;64.80
68807;BME280;55800;54.272;18.558;2023-03-23T02:26:41;99882.66;;;10.61;64.73
68807;BME280;55800;54.272;18.558;2023-03-23T02:29:37;99881.25;;;10.54;65.40
68807;BME280;55800;54.272;18.558;2023-03-23T02:32:34;99877.19;;;10.47;64.97
68807;BME280;55800;54.272;18.558;2023-03-23T02:35:12;99879.34;;;10.41;65.08
68807;BME280;55800;54.272;18.558;2023-03-23T02:37:46;99887.41;;;10.39;65.92
68807;BME280;55800;54.272;18.558;2023-03-23T02:40:19;99884.13;;;10.34;66.27
68807;BME280;55800;54.272;18.558;2023-03-23T02:42:52;99878.09;;;10.31;66.16
68807;BME280;55800;54.272;18.558;2023-03-23T02:45:22;99870.22;;;10.28;65.40
68807;BME280;55800;54.272;18.558;2023-03-23T02:47:54;99873.13;;;10.23;66.98
68807;BME280;55800;54.272;18.558;2023-03-23T02:50:26;99859.88;;;10.22;65.47
68807;BME280;55800;54.272;18.558;2023-03-23T02:52:56;99859.16;;;10.18;65.60
68807;BME280;55800;54.272;18.558;2023-03-23T02:55:29;99861.13;;;10.14;65.31
68807;BME280;55800;54.272;18.558;2023-03-23T02:58:03;99848.72;;;10.13;65.23
68807;BME280;55800;54.272;18.558;2023-03-23T03:00:32;99847.06;;;10.11;65.02
68807;BME280;55800;54.272;18.558;2023-03-23T03:03:00;99846.41;;;10.06;64.99
68807;BME280;55800;54.272;18.558;2023-03-23T03:05:38;99842.09;;;10.03;65.01
68807;BME280;55800;54.272;18.558;2023-03-23T03:08:18;99841.38;;;10.00;64.75
68807;BME280;55800;54.272;18.558;2023-03-23T03:10:57;99839.91;;;9.94;65.93
68807;BME280;55800;54.272;18.558;2023-03-23T03:13:35;99842.88;;;9.88;65.85
68807;BME280;55800;54.272;18.558;2023-03-23T03:16:10;99853.94;;;9.81;66.65
68807;BME280;55800;54.272;18.558;2023-03-23T03:18:49;99848.53;;;9.82;65.50
68807;BME280;55800;54.272;18.558;2023-03-23T03:21:25;99846.88;;;9.80;65.21
68807;BME280;55800;54.272;18.558;2023-03-23T03:23:59;99852.22;;;9.80;65.09
68807;BME280;55800;54.272;18.558;2023-03-23T03:26:30;99841.72;;;9.77;65.00
68807;BME280;55800;54.272;18.558;2023-03-23T03:29:23;99838.41;;;9.72;65.29
68807;BME280;55800;54.272;18.558;2023-03-23T03:31:56;99834.16;;;9.68;65.36
68807;BME280;55800;54.272;18.558;2023-03-23T03:34:27;99851.19;;;9.65;65.08
68807;BME280;55800;54.272;18.558;2023-03-23T03:37:00;99855.81;;;9.62;66.97
68807;BME280;55800;54.272;18.558;2023-03-23T03:39:35;99848.81;;;9.59;67.50
68807;BME280;55800;54.272;18.558;2023-03-23T03:42:05;99847.16;;;9.57;66.20
68807;BME280;55800;54.272;18.558;2023-03-23T03:44:33;99854.38;;;9.55;67.11
68807;BME280;55800;54.272;18.558;2023-03-23T03:47:02;99848.91;;;9.58;66.69
68807;BME280;55800;54.272;18.558;2023-03-23T03:49:31;99855.25;;;9.55;68.11
68807;BME280;55800;54.272;18.558;2023-03-23T03:52:00;99850.94;;;9.53;66.67
68807;BME280;55800;54.272;18.558;2023-03-23T03:54:37;99857.22;;;9.52;67.52
68807;BME280;55800;54.272;18.558;2023-03-23T03:57:07;99854.56;;;9.52;67.80
68807;BME280;55800;54.272;18.558;2023-03-23T03:59:38;99833.22;;;9.52;66.84
68807;BME280;55800;54.272;18.558;2023-03-23T04:02:27;99835.09;;;9.50;67.36
68807;BME280;55800;54.272;18.558;2023-03-23T04:04:56;99831.47;;;9.51;68.49
68807;BME280;55800;54.272;18.558;2023-03-23T04:07:25;99836.03;;;9.49;67.72
68807;BME280;55800;54.272;18.558;2023-03-23T04:09:57;99840.34;;;9.51;68.30
68807;BME280;55800;54.272;18.558;2023-03-23T04:12:25;99831.31;;;9.54;67.86
68807;BME280;55800;54.272;18.558;2023-03-23T04:14:56;99821.66;;;9.51;67.71
68807;BME280;55800;54.272;18.558;2023-03-23T04:17:30;99822.38;;;9.55;68.33
68807;BME280;55800;54.272;18.558;2023-03-23T04:19:59;99820.66;;;9.54;68.88
68807;BME280;55800;54.272;18.558;2023-03-23T04:22:32;99824.19;;;9.54;68.08
68807;BME280;55800;54.272;18.558;2023-03-23T04:25:02;99817.03;;;9.55;69.52
68807;BME280;55800;54.272;18.558;2023-03-23T04:27:36;99818.78;;;9.56;68.79
68807;BME280;55800;54.272;18.558;2023-03-23T04:30:11;99811.63;;;9.56;68.70
68807;BME280;55800;54.272;18.558;2023-03-23T04:32:41;99805.22;;;9.60;69.32
68807;BME280;55800;54.272;18.558;2023-03-23T04:35:13;99815.88;;;9.60;68.59
68807;BME280;55800;54.272;18.558;2023-03-23T04:37:49;99812.81;;;9.68;69.16
68807;BME280;55800;54.272;18.558;2023-03-23T04:40:20;99815.66;;;9.65;69.72
68807;BME280;55800;54.272;18.558;2023-03-23T04:43:00;99811.25;;;9.64;69.13
68807;BME280;55800;54.272;18.558;2023-03-23T04:45:53;99804.78;;;9.68;69.18
68807;BME280;55800;54.272;18.558;2023-03-23T04:48:23;99818.94;;;9.70;69.42
68807;BME280;55800;54.272;18.558;2023-03-23T04:51:03;99819.81;;;9.70;68.92
68807;BME280;55800;54.272;18.558;2023-03-23T04:53:34;99810.53;;;9.77;68.58
68807;BME280;55800;54.272;18.558;2023-03-23T04:56:03;99805.44;;;9.73;69.35
68807;BME280;55800;54.272;18.558;2023-03-23T04:58:38;99814.06;;;9.78;68.62
68807;BME280;55800;54.272;18.558;2023-03-23T05:01:21;99829.00;;;9.82;69.03
68807;BME280;55800;54.272;18.558;2023-03-23T05:04:05;99822.25;;;9.92;68.93
68807;BME280;55800;54.272;18.558;2023-03-23T05:06:34;99811.47;;;9.93;68.76
68807;BME280;55800;54.272;18.558;2023-03-23T05:09:12;99794.66;;;9.91;69.28
68807;BME280;55800;54.272;18.558;2023-03-23T05:11:41;99788.31;;;9.94;68.78
68807;BME280;55800;54.272;18.558;2023-03-23T05:14:09;99787.84;;;10.03;69.01
68807;BME280;55800;54.272;18.558;2023-03-23T05:16:39;99784.22;;;10.04;68.87
68807;BME280;55800;54.272;18.558;2023-03-23T05:19:08;99780.75;;;10.02;68.91
68807;BME280;55800;54.272;18.558;2023-03-23T05:21:37;99766.47;;;10.03;69.08
68807;BME280;55800;54.272;18.558;2023-03-23T05:24:06;99768.81;;;10.09;68.70
68807;BME280;55800;54.272;18.558;2023-03-23T05:26:36;99773.63;;;10.19;68.34
68807;BME280;55800;54.272;18.558;2023-03-23T05:29:11;99769.75;;;10.25;68.40
68807;BME280;55800;54.272;18.558;2023-03-23T05:31:46;99772.25;;;10.28;68.27
68807;BME280;55800;54.272;18.558;2023-03-23T05:34:15;99766.56;;;10.34;68.42
68807;BME280;55800;54.272;18.558;2023-03-23T05:36:50;99754.94;;;10.35;68.48
68807;BME280;55800;54.272;18.558;2023-03-23T05:39:56;99760.22;;;10.37;68.77
68807;BME280;55800;54.272;18.558;2023-03-23T05:42:26;99753.81;;;10.39;68.34
68807;BME280;55800;54.272;18.558;2023-03-23T05:45:15;99750.81;;;10.45;68.41
68807;BME280;55800;54.272;18.558;2023-03-23T05:47:45;99751.41;;;10.50;68.55
68807;BME280;55800;54.272;18.558;2023-03-23T05:50:19;99754.03;;;10.52;68.49
68807;BME280;55800;54.272;18.558;2023-03-23T05:52:48;99753.75;;;10.56;68.49
68807;BME280;55800;54.272;18.558;2023-03-23T05:55:17;99756.94;;;10.63;68.47
68807;BME280;55800;54.272;18.558;2023-03-23T05:57:55;99739.88;;;10.65;68.30
68807;BME280;55800;54.272;18.558;2023-03-23T06:00:31;99732.72;;;10.66;68.21
68807;BME280;55800;54.272;18.558;2023-03-23T06:03:12;99724.63;;;10.67;68.42
68807;BME280;55800;54.272;18.558;2023-03-23T06:06:06;99719.88;;;10.72;68.52
68807;BME280;55800;54.272;18.558;2023-03-23T06:08:48;99716.84;;;10.78;68.29
68807;BME280;55800;54.272;18.558;2023-03-23T06:11:22;99714.59;;;10.86;68.16
68807;BME280;55800;54.272;18.558;2023-03-23T06:14:10;99718.13;;;10.87;68.29
68807;BME280;55800;54.272;18.558;2023-03-23T06:16:40;99714.34;;;10.91;67.99
68807;BME280;55800;54.272;18.558;2023-03-23T06:19:11;99721.22;;;10.95;68.03
68807;BME280;55800;54.272;18.558;2023-03-23T06:21:46;99725.97;;;11.06;68.18
68807;BME280;55800;54.272;18.558;2023-03-23T06:24:23;99729.81;;;11.16;67.96
68807;BME280;55800;54.272;18.558;2023-03-23T06:26:53;99724.13;;;11.22;67.80
68807;BME280;55800;54.272;18.558;2023-03-23T06:29:24;99729.28;;;11.25;67.57
68807;BME280;55800;54.272;18.558;2023-03-23T06:31:58;99719.63;;;11.22;67.82
68807;BME280;55800;54.272;18.558;2023-03-23T06:34:28;99725.69;;;11.26;67.77
68807;BME280;55800;54.272;18.558;2023-03-23T06:37:15;99713.75;;;11.31;67.51
68807;BME280;55800;54.272;18.558;2023-03-23T06:39:54;99704.06;;;11.29;67.50
68807;BME280;55800;54.272;18.558;2023-03-23T06:42:28;99701.50;;;11.27;67.62
68807;BME280;55800;54.272;18.558;2023-03-23T06:45:36;99712.03;;;11.30;67.61
68807;BME280;55800;54.272;18.558;2023-03-23T06:48:24;99701.22;;;11.32;67.58
68807;BME280;55800;54.272;18.558;2023-03-23T06:50:53;99696.66;;;11.34;67.64
68807;BME280;55800;54.272;18.558;2023-03-23T06:53:24;99699.13;;;11.37;67.71
68807;BME280;55800;54.272;18.558;2023-03-23T06:55:55;99681.25;;;11.37;67.69
68807;BME280;55800;54.272;18.558;2023-03-23T06:58:24;99680.06;;;11.43;67.76
68807;BME280;55800;54.272;18.558;2023-03-23T07:00:58;99681.47;;;11.48;67.70
68807;BME280;55800;54.272;18.558;2023-03-23T07:03:32;99678.31;;;11.56;67.77
68807;BME280;55800;54.272;18.558;2023-03-23T07:06:00;99683.41;;;11.60;67.74
68807;BME280;55800;54.272;18.558;2023-03-23T07:08:34;99677.25;;;11.74;67.59
68807;BME280;55800;54.272;18.558;2023-03-23T07:11:02;99680.31;;;11.82;67.67
68807;BME280;55800;54.272;18.558;2023-03-23T07:13:31;99686.91;;;11.91;67.50
68807;BME280;55800;54.272;18.558;2023-03-23T07:16:05;99692.88;;;11.96;67.67
68807;BME280;55800;54.272;18.558;2023-03-23T07:18:34;99678.03;;;12.04;67.70
68807;BME280;55800;54.272;18.558;2023-03-23T07:21:05;99711.31;;;12.14;67.39
68807;BME280;55800;54.272;18.558;2023-03-23T07:23:36;99713.22;;;12.26;66.61
68807;BME280;55800;54.272;18.558;2023-03-23T07:26:07;99709.31;;;12.32;66.12
68807;BME280;55800;54.272;18.558;2023-03-23T07:28:43;99716.38;;;12.33;65.82
68807;BME280;55800;54.272;18.558;2023-03-23T07:31:27;99685.19;;;12.32;66.45
68807;BME280;55800;54.272;18.558;2023-03-23T07:33:57;99673.97;;;12.39;66.14
68807;BME280;55800;54.272;18.558;2023-03-23T07:36:33;99668.44;;;12.42;66.00
68807;BME280;55800;54.272;18.558;2023-03-23T07:39:06;99670.78;;;12.47;65.98
68807;BME280;55800;54.272;18.558;2023-03-23T07:41:35;99672.13;;;12.54;65.55
68807;BME280;55800;54.272;18.558;2023-03-23T07:44:16;99677.31;;;12.57;66.12
68807;BME280;55800;54.272;18.558;2023-03-23T07:46:45;99686.56;;;12.66;65.55
68807;BME280;55800;54.272;18.558;2023-03-23T07:49:16;99685.19;;;12.73;65.75
68807;BME280;55800;54.272;18.558;2023-03-23T07:51:53;99667.94;;;12.77;65.06
68807;BME280;55800;54.272;18.558;2023-03-23T07:54:22;99674.84;;;12.81;65.43
68807;BME280;55800;54.272;18.558;2023-03-23T07:56:56;99671.00;;;12.85;65.48
68807;BME280;55800;54.272;18.558;2023-03-23T07:59:27;99662.72;;;12.88;65.19
68807;BME280;55800;54.272;18.558;2023-03-23T08:02:00;99658.78;;;12.93;64.76
68807;BME280;55800;54.272;18.558;2023-03-23T08:04:55;99647.19;;;12.93;64.73
68807;BME280;55800;54.272;18.558;2023-03-23T08:07:35;99655.03;;;12.96;65.27
68807;BME280;55800;54.272;18.558;2023-03-23T08:10:16;99664.03;;;12.95;65.23
68807;BME280;55800;54.272;18.558;2023-03-23T08:13:07;99652.78;;;13.02;64.58
68807;BME280;55800;54.272;18.558;2023-03-23T08:15:45;99645.53;;;13.04;64.60
68807;BME280;55800;54.272;18.558;2023-03-23T08:18:35;99658.63;;;13.09;64.88
68807;BME280;55800;54.272;18.558;2023-03-23T08:21:22;99660.81;;;13.16;64.47
68807;BME280;55800;54.272;18.558;2023-03-23T08:24:25;99670.69;;;13.16;63.89
68807;BME280;55800;54.272;18.558;2023-03-23T08:27:14;99676.94;;;13.16;64.39
68807;BME280;55800;54.272;18.558;2023-03-23T08:30:01;99682.19;;;13.18;64.10
68807;BME280;55800;54.272;18.558;2023-03-23T08:32:57;99689.19;;;13.20;64.28
68807;BME280;55800;54.272;18.558;2023-03-23T08:35:29;99686.38;;;13.22;63.78
68807;BME280;55800;54.272;18.558;2023-03-23T08:38:17;99690.78;;;13.23;63.54
68807;BME280;55800;54.272;18.558;2023-03-23T08:41:09;99699.03;;;13.20;64.14
68807;BME280;55800;54.272;18.558;2023-03-23T08:44:08;99694.44;;;13.22;64.11
68807;BME280;55800;54.272;18.558;2023-03-23T08:46:52;99690.78;;;13.23;64.15
68807;BME280;55800;54.272;18.558;2023-03-23T08:49:46;99689.06;;;13.22;64.20
68807;BME280;55800;54.272;18.558;2023-03-23T08:52:39;99694.22;;;13.25;64.38
68807;BME280;55800;54.272;18.558;2023-03-23T08:55:20;99698.44;;;13.29;64.17
68807;BME280;55800;54.272;18.558;2023-03-23T08:58:09;99691.44;;;13.26;64.61
68807;BME280;55800;54.272;18.558;2023-03-23T09:00:57;99686.25;;;13.23;64.76
68807;BME280;55800;54.272;18.558;2023-03-23T09:03:44;99688.13;;;13.23;65.27
68807;BME280;55800;54.272;18.558;2023-03-23T09:06:32;99695.94;;;13.26;65.19
68807;BME280;55800;54.272;18.558;2023-03-23T09:09:02;99691.75;;;13.22;65.07
68807;BME280;55800;54.272;18.558;2023-03-23T09:11:34;99700.09;;;13.17;65.39
68807;BME280;55800;54.272;18.558;2023-03-23T09:14:03;99700.97;;;13.18;65.68
68807;BME280;55800;54.272;18.558;2023-03-23T09:16:34;99704.81;;;13.14;65.56
68807;BME280;55800;54.272;18.558;2023-03-23T09:19:02;99706.94;;;13.09;65.96
68807;BME280;55800;54.272;18.558;2023-03-23T09:21:30;99706.94;;;13.09;66.29
68807;BME280;55800;54.272;18.558;2023-03-23T09:23:58;99711.25;;;13.11;66.46
68807;BME280;55800;54.272;18.558;2023-03-23T09:26:30;99704.06;;;13.12;66.58
68807;BME280;55800;54.272;18.558;2023-03-23T09:28:58;99704.59;;;13.17;66.72
68807;BME280;55800;54.272;18.558;2023-03-23T09:31:27;99692.38;;;13.25;66.41
68807;BME280;55800;54.272;18.558;2023-03-23T09:33:55;99696.91;;;13.25;67.00
68807;BME280;55800;54.272;18.558;2023-03-23T09:36:24;99693.94;;;13.29;66.77
68807;BME280;55800;54.272;18.558;2023-03-23T09:38:52;99695.00;;;13.27;67.00
68807;BME280;55800;54.272;18.558;2023-03-23T09:41:44;99688.34;;;13.32;66.96
68807;BME280;55800;54.272;18.558;2023-03-23T09:44:22;99698.97;;;13.34;67.10
68807;BME280;55800;54.272;18.558;2023-03-23T09:46:59;99695.22;;;13.37;67.05
68807;BME280;55800;54.272;18.558;2023-03-23T09:49:33;99694.56;;;13.33;67.28
68807;BME280;55800;54.272;18.558;2023-03-23T09:52:09;99698.22;;;13.32;67.44
68807;BME280;55800;54.272;18.558;2023-03-23T09:54:40;99693.81;;;13.31;67.32
68807;BME280;55800;54.272;18.558;2023-03-23T09:57:16;99696.50;;;13.31;67.88
68807;BME280;55800;54.272;18.558;2023-03-23T09:59:53;99703.03;;;13.27;67.82
68807;BME280;55800;54.272;18.558;2023-03-23T10:02:27;99705.50;;;13.30;68.23
68807;BME280;55800;54.272;18.558;2023-03-23T10:05:07;99700.13;;;13.30;68.09
68807;BME280;55800;54.272;18.558;2023-03-23T10:07:41;99698.31;;;13.30;67.95
68807;BME280;55800;54.272;18.558;2023-03-23T10:10:13;99708.94;;;13.32;68.30
68807;BME280;55800;54.272;18.558;2023-03-23T10:12:49;99710.69;;;13.33;68.42
68807;BME280;55800;54.272;18.558;2023-03-23T10:15:21;99712.50;;;13.32;68.53
68807;BME280;55800;54.272;18.558;2023-03-23T10:17:55;99706.50;;;13.29;68.72
68807;BME280;55800;54.272;18.558;2023-03-23T10:20:35;99696.63;;;13.29;68.69
68807;BME280;55800;54.272;18.558;2023-03-23T10:23:20;99703.56;;;13.32;68.73
68807;BME280;55800;54.272;18.558;2023-03-23T10:25:54;99708.09;;;13.32;69.02
68807;BME280;55800;54.272;18.558;2023-03-23T10:28:37;99712.59;;;13.31;68.98
68807;BME280;55800;54.272;18.558;2023-03-23T10:31:10;99718.72;;;13.33;69.09
68807;BME280;55800;54.272;18.558;2023-03-23T10:33:41;99722.28;;;13.34;69.06
68807;BME280;55800;54.272;18.558;2023-03-23T10:36:18;99717.00;;;13.32;68.57
68807;BME280;55800;54.272;18.558;2023-03-23T10:38:52;99721.19;;;13.36;68.72
68807;BME280;55800;54.272;18.558;2023-03-23T10:41:22;99717.44;;;13.39;68.46
68807;BME280;55800;54.272;18.558;2023-03-23T10:43:52;99723.88;;;13.36;68.56
68807;BME280;55800;54.272;18.558;2023-03-23T10:46:29;99728.50;;;13.34;68.85
68807;BME280;55800;54.272;18.558;2023-03-23T10:49:02;99722.94;;;13.37;68.92
68807;BME280;55800;54.272;18.558;2023-03-23T10:51:34;99719.31;;;13.38;68.64
68807;BME280;55800;54.272;18.558;2023-03-23T10:54:04;99722.94;;;13.37;68.57
68807;BME280;55800;54.272;18.558;2023-03-23T10:56:37;99723.78;;;13.38;68.67
68807;BME280;55800;54.272;18.558;2023-03-23T10:59:15;99724.66;;;13.38;68.67
68807;BME280;55800;54.272;18.558;2023-03-23T11:01:50;99731.75;;;13.39;68.42
68807;BME280;55800;54.272;18.558;2023-03-23T11:04:19;99732.72;;;13.38;68.49
68807;BME280;55800;54.272;18.558;2023-03-23T11:06:51;99733.66;;;13.37;68.62
68807;BME280;55800;54.272;18.558;2023-03-23T11:09:32;99729.91;;;13.40;68.63
68807;BME280;55800;54.272;18.558;2023-03-23T11:12:00;99735.19;;;13.41;68.45
68807;BME280;55800;54.272;18.558;2023-03-23T11:14:31;99737.88;;;13.41;68.77
68807;BME280;55800;54.272;18.558;2023-03-23T11:17:04;99735.94;;;13.43;68.45
68807;BME280;55800;54.272;18.558;2023-03-23T11:19:35;99735.81;;;13.45;68.40
68807;BME280;55800;54.272;18.558;2023-03-23T11:22:08;99738.63;;;13.43;68.35
68807;BME280;55800;54.272;18.558;2023-03-23T11:24:41;99738.63;;;13.43;68.27
68807;BME280;55800;54.272;18.558;2023-03-23T11:27:10;99728.63;;;13.45;68.25
68807;BME280;55800;54.272;18.558;2023-03-23T11:29:50;99732.06;;;13.47;68.55
68807;BME280;55800;54.272;18.558;2023-03-23T11:32:22;99730.25;;;13.48;68.37
68807;BME280;55800;54.272;18.558;2023-03-23T11:34:56;99730.91;;;13.51;68.32
68807;BME280;55800;54.272;18.558;2023-03-23T11:37:29;99725.09;;;13.57;68.43
68807;BME280;55800;54.272;18.558;2023-03-23T11:40:02;99721.16;;;13.63;68.24
68807;BME280;55800;54.272;18.558;2023-03-23T11:42:37;99722.88;;;13.64;68.07
68807;BME280;55800;54.272;18.558;2023-03-23T11:45:19;99717.31;;;13.67;67.97
68807;BME280;55800;54.272;18.558;2023-03-23T11:48:00;99700.31;;;13.66;67.87
68807;BME280;55800;54.272;18.558;2023-03-23T11:50:32;99707.19;;;13.70;67.91
68807;BME280;55800;54.272;18.558;2023-03-23T11:53:08;99701.38;;;13.76;67.65
68807;BME280;55800;54.272;18.558;2023-03-23T11:55:52;99699.25;;;13.81;67.86
68807;BME280;55800;54.272;18.558;2023-03-23T11:58:22;99709.56;;;13.87;67.84
68807;BME280;55800;54.272;18.558;2023-03-23T12:00:57;99713.56;;;13.94;68.01
68807;BME280;55800;54.272;18.558;2023-03-23T12:03:45;99720.25;;;14.01;67.70
68807;BME280;55800;54.272;18.558;2023-03-23T12:06:21;99709.91;;;14.08;67.42
68807;BME280;55800;54.272;18.558;2023-03-23T12:09:02;99704.00;;;14.16;67.65
68807;BME280;55800;54.272;18.558;2023-03-23T12:11:39;99701.72;;;14.22;67.32
68807;BME280;55800;54.272;18.558;2023-03-23T12:14:17;99699.78;;;14.24;67.45
68807;BME280;55800;54.272;18.558;2023-03-23T12:16:59;99707.66;;;14.27;66.99
68807;BME280;55800;54.272;18.558;2023-03-23T12:19:37;99708.59;;;14.26;66.79
68807;BME280;55800;54.272;18.558;2023-03-23T12:22:19;99709.66;;;14.24;67.18
68807;BME280;55800;54.272;18.558;2023-03-23T12:25:01;99707.56;;;14.29;67.47
68807;BME280;55800;54.272;18.558;2023-03-23T12:27:41;99701.75;;;14.35;67.34
68807;BME280;55800;54.272;18.558;2023-03-23T12:30:24;99701.28;;;14.41;67.26
68807;BME280;55800;54.272;18.558;2023-03-23T12:33:17;99699.78;;;14.49;67.48
68807;BME280;55800;54.272;18.558;2023-03-23T12:36:01;99688.56;;;14.55;66.82
68807;BME280;55800;54.272;18.558;2023-03-23T12:38:43;99690.94;;;14.60;66.82
68807;BME280;55800;54.272;18.558;2023-03-23T12:41:17;99696.09;;;14.63;66.94
68807;BME280;55800;54.272;18.558;2023-03-23T12:43:52;99713.72;;;14.67;66.41
68807;BME280;55800;54.272;18.558;2023-03-23T12:46:43;99707.81;;;14.62;66.21
68807;BME280;55800;54.272;18.558;2023-03-23T12:49:21;99707.59;;;14.65;66.55
68807;BME280;55800;54.272;18.558;2023-03-23T12:51:54;99698.44;;;14.67;66.58
68807;BME280;55800;54.272;18.558;2023-03-23T12:54:29;99695.94;;;14.77;66.64
68807;BME280;55800;54.272;18.558;2023-03-23T12:57:02;99690.56;;;14.77;66.24
68807;BME280;55800;54.272;18.558;2023-03-23T12:59:39;99688.72;;;14.77;66.07
68807;BME280;55800;54.272;18.558;2023-03-23T13:02:15;99687.97;;;14.75;65.54
68807;BME280;55800;54.272;18.558;2023-03-23T13:04:52;99690.03;;;14.72;65.68
68807;BME280;55800;54.272;18.558;2023-03-23T13:07:28;99687.31;;;14.72;65.85
68807;BME280;55800;54.272;18.558;2023-03-23T13:10:03;99693.56;;;14.72;65.81
68807;BME280;55800;54.272;18.558;2023-03-23T13:12:34;99691.75;;;14.73;66.01
68807;BME280;55800;54.272;18.558;2023-03-23T13:15:18;99692.63;;;14.73;66.05
68807;BME280;55800;54.272;18.558;2023-03-23T13:17:52;99698.63;;;14.77;65.56
68807;BME280;55800;54.272;18.558;2023-03-23T13:20:51;99703.25;;;14.75;65.88
68807;BME280;55800;54.272;18.558;2023-03-23T13:23:23;99703.03;;;14.78;66.13
68807;BME280;55800;54.272;18.558;2023-03-23T13:25:59;99697.41;;;14.81;65.69
68807;BME280;55800;54.272;18.558;2023-03-23T13:28:29;99700.34;;;14.78;65.34
68807;BME280;55800;54.272;18.558;2023-03-23T13:31:01;99699.25;;;14.80;65.95
68807;BME280;55800;54.272;18.558;2023-03-23T13:33:35;99705.50;;;14.81;65.49
68807;BME280;55800;54.272;18.558;2023-03-23T13:36:12;99704.53;;;14.82;65.76